Time;durP1;ratioP1;P1;durP2;ratioP2;P2;SDS_P1;SDS_P2;PMS_P1;PMS_P2;Temp;Humidity;BMP_temperature;BMP_pressure;BME280_temperature;BME280_humidity;BME280_pressure;Samples;Min_cycle;Max_cycle;Signal;HPM_P1;HPM_P2
2023/08/01 00:02:22;;;;;;;9.57;6.43;;;16.60;99.90;;;;;;4908972;29;20574;-81
2023/08/01 00:04:48;;;;;;;13.13;6.32;;;16.60;99.90;;;;;;4916843;29;20091;-81
2023/08/01 00:07:13;;;;;;;12.35;5.95;;;16.60;99.90;;;;;;4927917;29;20050;-81
2023/08/01 00:09:39;;;;;;;12.43;5.43;;;16.60;99.90;;;;;;4923417;29;20065;-81
2023/08/01 00:12:05;;;;;;;9.65;5.35;;;16.60;99.90;;;;;;4929035;29;20515;-81
2023/08/01 00:14:30;;;;;;;9.63;5.00;;;16.60;99.90;;;;;;4927923;29;20036;-81
2023/08/01 00:16:56;;;;;;;8.48;4.47;;;16.60;99.90;;;;;;4926571;29;20087;-81
2023/08/01 00:19:21;;;;;;;7.78;4.30;;;16.50;99.90;;;;;;4925761;29;20095;-81
2023/08/01 00:21:47;;;;;;;9.82;4.93;;;16.50;99.90;;;;;;4925697;29;20090;-81
2023/08/01 00:24:13;;;;;;;8.10;4.75;;;16.50;99.90;;;;;;4927306;29;20092;-80
2023/08/01 00:26:38;;;;;;;12.23;4.72;;;16.50;99.90;;;;;;4926964;29;20047;-81
2023/08/01 00:29:04;;;;;;;9.15;3.83;;;16.50;99.90;;;;;;4910740;29;20066;-81
2023/08/01 00:31:29;;;;;;;11.00;3.97;;;16.50;99.90;;;;;;4925718;29;20738;-81
2023/08/01 00:33:55;;;;;;;12.45;5.03;;;16.50;99.90;;;;;;4927541;29;20044;-81
2023/08/01 00:36:20;;;;;;;13.13;4.70;;;16.50;99.90;;;;;;4923799;29;20058;-81
2023/08/01 00:38:47;;;;;;;16.15;5.55;;;16.70;99.90;;;;;;4925975;29;20539;-81
2023/08/01 00:41:12;;;;;;;7.90;4.38;;;16.40;99.90;;;;;;4927188;29;20546;-81
2023/08/01 00:43:38;;;;;;;10.80;4.80;;;16.40;99.90;;;;;;4911970;29;20166;-81
2023/08/01 00:46:05;;;;;;;11.32;5.05;;;16.40;99.90;;;;;;4926841;29;20502;-81
2023/08/01 00:48:31;;;;;;;10.38;4.80;;;16.40;99.90;;;;;;4930500;29;20032;-81
2023/08/01 00:51:03;;;;;;;12.85;5.28;;;16.40;99.90;;;;;;4930187;28;20040;-81
2023/08/01 00:53:29;;;;;;;8.68;5.43;;;16.40;99.90;;;;;;4929651;29;20051;-80
2023/08/01 00:55:56;;;;;;;12.73;5.10;;;16.30;99.90;;;;;;4925251;29;20048;-81
2023/08/01 00:58:21;;;;;;;15.27;6.13;;;16.30;99.90;;;;;;4920964;29;20131;-81
2023/08/01 01:00:48;;;;;;;11.38;5.55;;;16.30;99.90;;;;;;4922658;29;20534;-81
2023/08/01 01:03:14;;;;;;;16.48;5.63;;;16.30;99.90;;;;;;4925119;29;20040;-81
2023/08/01 01:05:47;;;;;;;15.85;6.30;;;16.30;99.90;;;;;;4921982;29;20502;-81
2023/08/01 01:08:13;;;;;;;9.25;6.28;;;16.30;99.90;;;;;;4932465;29;20079;-81
2023/08/01 01:10:39;;;;;;;15.68;6.30;;;16.40;99.90;;;;;;4913233;29;20070;-80
2023/08/01 01:13:04;;;;;;;15.77;6.25;;;16.30;99.90;;;;;;4923895;29;20126;-81
2023/08/01 01:15:30;;;;;;;20.90;6.93;;;16.30;99.90;;;;;;4922396;29;20443;-81
2023/08/01 01:17:55;;;;;;;11.38;4.93;;;16.30;99.90;;;;;;4924094;29;20508;-81
2023/08/01 01:20:26;;;;;;;18.92;6.65;;;16.20;99.90;;;;;;4920922;29;20040;-81
2023/08/01 01:22:53;;;;;;;13.80;6.25;;;16.20;99.90;;;;;;4933912;28;20051;-80
2023/08/01 01:25:21;;;;;;;13.70;6.20;;;16.20;99.90;;;;;;4925307;29;20506;-81
2023/08/01 01:27:49;;;;;;;13.48;6.15;;;16.30;99.90;;;;;;4922323;29;20759;-81
2023/08/01 01:30:16;;;;;;;12.18;5.15;;;16.20;99.90;;;;;;4917584;29;20398;-81
2023/08/01 01:32:41;;;;;;;14.88;5.72;;;16.20;99.90;;;;;;4920722;29;20835;-81
2023/08/01 01:35:07;;;;;;;11.25;4.63;;;16.20;99.90;;;;;;4923095;29;20039;-81
2023/08/01 01:37:33;;;;;;;14.90;4.60;;;16.20;99.90;;;;;;4928574;29;20142;-81
2023/08/01 01:39:58;;;;;;;16.05;4.35;;;16.20;99.90;;;;;;4919594;29;20115;-81
2023/08/01 01:42:24;;;;;;;9.73;3.92;;;16.20;99.90;;;;;;4920440;29;20171;-81
2023/08/01 01:44:49;;;;;;;9.95;3.65;;;16.20;99.90;;;;;;4927172;29;20445;-81
2023/08/01 01:47:15;;;;;;;8.25;3.10;;;16.20;99.90;;;;;;4922579;29;20521;-81
2023/08/01 01:49:40;;;;;;;11.88;3.28;;;16.10;99.90;;;;;;4920530;29;20063;-81
2023/08/01 01:52:06;;;;;;;10.25;3.50;;;16.20;99.90;;;;;;4930309;29;20050;-81
2023/08/01 01:54:31;;;;;;;10.88;3.58;;;16.10;99.90;;;;;;4927385;28;20036;-80
2023/08/01 01:56:57;;;;;;;11.40;4.07;;;16.10;99.90;;;;;;4923768;29;20312;-81
2023/08/01 01:59:23;;;;;;;11.23;3.95;;;16.10;99.90;;;;;;4923614;29;20131;-81
2023/08/01 02:01:48;;;;;;;11.88;3.72;;;16.10;99.90;;;;;;4922083;29;20128;-81
2023/08/01 02:04:14;;;;;;;12.52;4.13;;;16.00;99.90;;;;;;4927013;28;20130;-81
2023/08/01 02:06:39;;;;;;;9.13;3.88;;;16.00;99.90;;;;;;4922314;29;20051;-80
2023/08/01 02:09:05;;;;;;;13.65;4.93;;;16.00;99.90;;;;;;4925718;29;20043;-81
2023/08/01 02:11:30;;;;;;;14.77;4.95;;;16.00;99.90;;;;;;4924196;29;20132;-80
2023/08/01 02:13:56;;;;;;;9.90;3.72;;;15.90;99.90;;;;;;4921347;29;20422;-80
2023/08/01 02:16:22;;;;;;;17.05;4.18;;;15.90;99.90;;;;;;4923484;29;20066;-80
2023/08/01 02:18:47;;;;;;;10.35;4.18;;;15.80;99.90;;;;;;4919275;29;20118;-81
2023/08/01 02:21:13;;;;;;;8.25;4.13;;;15.80;99.90;;;;;;4924257;29;20044;-80
2023/08/01 02:23:38;;;;;;;10.52;3.45;;;15.70;99.90;;;;;;4922640;29;20050;-80
2023/08/01 02:26:04;;;;;;;13.50;3.75;;;15.60;99.90;;;;;;4920566;29;20059;-81
2023/08/01 02:28:29;;;;;;;12.95;3.67;;;15.60;99.90;;;;;;4921096;29;20055;-80
2023/08/01 02:30:55;;;;;;;14.07;4.28;;;15.60;99.90;;;;;;4920961;29;20044;-80
2023/08/01 02:33:20;;;;;;;13.15;4.70;;;15.60;99.90;;;;;;4933886;29;20044;-80
2023/08/01 02:35:47;;;;;;;13.13;5.43;;;15.50;99.90;;;;;;4925830;29;20052;-80
2023/08/01 02:38:13;;;;;;;14.25;5.00;;;15.50;99.90;;;;;;4926600;29;20047;-80
2023/08/01 02:40:38;;;;;;;14.45;4.97;;;15.50;99.90;;;;;;4925581;29;20124;-80
2023/08/01 02:43:04;;;;;;;11.73;4.93;;;15.70;99.90;;;;;;4924828;29;20787;-80
2023/08/01 02:45:29;;;;;;;12.27;4.90;;;15.50;99.90;;;;;;4924146;29;20044;-80
2023/08/01 02:47:55;;;;;;;10.13;4.53;;;15.50;99.90;;;;;;4915982;29;20039;-80
2023/08/01 02:50:21;;;;;;;15.32;5.03;;;15.50;99.90;;;;;;4926918;29;20043;-80
2023/08/01 02:52:46;;;;;;;7.57;4.40;;;15.50;99.90;;;;;;4924171;29;20044;-80
2023/08/01 02:55:12;;;;;;;12.00;4.80;;;15.60;99.90;;;;;;4926157;29;20055;-80
2023/08/01 02:57:37;;;;;;;16.83;5.60;;;15.60;99.90;;;;;;4918065;29;20079;-80
2023/08/01 03:00:05;;;;;;;15.30;5.47;;;15.50;99.90;;;;;;4916797;29;20114;-80
2023/08/01 03:02:31;;;;;;;10.38;5.53;;;15.60;99.90;;;;;;4924407;29;20052;-80
2023/08/01 03:04:57;;;;;;;12.70;5.25;;;15.60;99.90;;;;;;4924261;29;20054;-80
2023/08/01 03:07:23;;;;;;;10.00;4.93;;;15.60;99.90;;;;;;4926008;29;20091;-80
2023/08/01 03:09:49;;;;;;;12.68;5.57;;;15.60;99.90;;;;;;4927424;29;20048;-80
2023/08/01 03:12:14;;;;;;;21.42;5.55;;;15.70;99.90;;;;;;4926218;29;20691;-81
2023/08/01 03:14:43;;;;;;;14.70;5.80;;;15.70;99.90;;;;;;4903610;29;20040;-81
2023/08/01 03:17:08;;;;;;;14.23;5.50;;;15.80;99.90;;;;;;4924712;29;20040;-81
2023/08/01 03:19:34;;;;;;;14.40;5.78;;;15.70;99.90;;;;;;4926176;29;20751;-81
2023/08/01 03:22:00;;;;;;;6.50;3.63;;;15.70;99.90;;;;;;4910719;29;20066;-80
2023/08/01 03:24:26;;;;;;;12.25;3.72;;;15.80;99.90;;;;;;4909215;29;20036;-80
2023/08/01 03:26:51;;;;;;;8.20;3.05;;;15.80;99.90;;;;;;4903753;29;20494;-80
2023/08/01 03:29:17;;;;;;;9.50;2.75;;;15.80;99.90;;;;;;4924764;29;20044;-80
2023/08/01 03:31:42;;;;;;;5.55;2.03;;;15.70;99.90;;;;;;4926388;29;20127;-80
2023/08/01 03:34:08;;;;;;;4.10;1.73;;;15.70;99.90;;;;;;4927652;29;20116;-80
2023/08/01 03:36:34;;;;;;;8.80;2.15;;;15.70;99.90;;;;;;4929430;29;20044;-80
2023/08/01 03:39:00;;;;;;;9.30;2.08;;;15.60;99.90;;;;;;4908706;29;20052;-80
2023/08/01 03:41:26;;;;;;;6.03;1.85;;;15.60;99.90;;;;;;4926328;29;20937;-80
2023/08/01 03:43:51;;;;;;;5.68;1.75;;;15.60;99.90;;;;;;4907925;29;20047;-80
2023/08/01 03:46:17;;;;;;;3.40;1.27;;;15.60;99.90;;;;;;4909848;29;20047;-80
2023/08/01 03:48:43;;;;;;;6.18;1.95;;;15.50;99.90;;;;;;4912851;29;20039;-80
2023/08/01 03:51:08;;;;;;;7.20;1.77;;;15.40;99.90;;;;;;4908751;29;20376;-81
2023/08/01 03:53:34;;;;;;;4.40;1.20;;;15.40;99.90;;;;;;4909971;29;20078;-80
2023/08/01 03:55:59;;;;;;;4.25;1.20;;;15.40;99.90;;;;;;4927938;29;20523;-80
2023/08/01 03:58:25;;;;;;;7.32;1.67;;;15.30;99.90;;;;;;4907974;29;20107;-80
2023/08/01 04:00:51;;;;;;;5.22;1.30;;;15.40;99.90;;;;;;4911071;29;20757;-81
2023/08/01 04:03:16;;;;;;;3.30;1.35;;;15.30;99.90;;;;;;4908227;29;20044;-80
2023/08/01 04:05:42;;;;;;;2.42;1.10;;;15.30;99.90;;;;;;4926949;29;20043;-81
2023/08/01 04:08:08;;;;;;;2.95;1.80;;;15.30;99.90;;;;;;4922141;29;20491;-81
2023/08/01 04:10:34;;;;;;;7.35;1.27;;;15.30;99.90;;;;;;4925282;29;20046;-81
2023/08/01 04:12:59;;;;;;;4.75;0.90;;;15.30;99.90;;;;;;4920582;29;20044;-81
2023/08/01 04:15:25;;;;;;;3.35;0.90;;;15.20;99.90;;;;;;4924657;29;20506;-80
2023/08/01 04:17:50;;;;;;;2.85;1.00;;;15.20;99.90;;;;;;4922070;29;20095;-80
2023/08/01 04:20:16;;;;;;;2.22;0.60;;;15.20;99.90;;;;;;4926912;29;20067;-81
2023/08/01 04:22:42;;;;;;;4.63;0.98;;;15.10;99.90;;;;;;4927627;29;20490;-81
2023/08/01 04:25:08;;;;;;;2.15;1.05;;;15.10;99.90;;;;;;4927328;29;20126;-81
2023/08/01 04:27:33;;;;;;;2.10;0.55;;;15.10;99.90;;;;;;4926240;29;20839;-81
2023/08/01 04:29:59;;;;;;;2.60;0.70;;;15.10;99.90;;;;;;4924781;29;20130;-81
2023/08/01 04:32:24;;;;;;;1.83;0.70;;;15.00;99.90;;;;;;4921893;29;20047;-80
2023/08/01 04:34:50;;;;;;;1.88;0.80;;;15.00;99.90;;;;;;4919647;29;20051;-81
2023/08/01 04:37:16;;;;;;;3.42;0.60;;;15.00;99.90;;;;;;4923638;29;20039;-81
2023/08/01 04:39:41;;;;;;;4.15;0.93;;;15.00;99.90;;;;;;4928659;29;20075;-81
2023/08/01 04:42:07;;;;;;;2.75;0.60;;;15.00;99.90;;;;;;4914987;29;20039;-81
2023/08/01 04:44:32;;;;;;;2.13;0.70;;;15.00;99.90;;;;;;4928145;29;20044;-80
2023/08/01 04:46:58;;;;;;;3.78;1.05;;;14.90;99.90;;;;;;4924517;29;20052;-81
2023/08/01 04:49:26;;;;;;;2.92;0.93;;;14.90;99.90;;;;;;4926548;29;20043;-81
2023/08/01 04:51:52;;;;;;;3.80;1.10;;;15.00;99.90;;;;;;4929827;29;20082;-81
2023/08/01 04:54:17;;;;;;;3.22;0.70;;;15.00;99.90;;;;;;4926447;29;20071;-81
2023/08/01 04:56:43;;;;;;;3.78;0.77;;;15.00;99.90;;;;;;4924761;29;20054;-81
2023/08/01 04:59:09;;;;;;;3.05;0.77;;;15.00;99.90;;;;;;4904660;29;20056;-81
2023/08/01 05:01:34;;;;;;;3.22;0.80;;;15.10;99.90;;;;;;4911313;29;20189;-81
2023/08/01 05:04:00;;;;;;;4.53;1.00;;;15.10;99.90;;;;;;4917872;29;20054;-82
2023/08/01 05:06:27;;;;;;;3.30;1.17;;;15.10;99.90;;;;;;4930305;29;20047;-82
2023/08/01 05:09:13;;;;;;;1.65;0.88;;;15.10;99.90;;;;;;4935222;28;20058;-82
2023/08/01 05:11:39;;;;;;;4.25;0.98;;;14.70;99.90;;;;;;4925359;29;20071;-81
2023/08/01 05:14:05;;;;;;;4.18;1.38;;;15.20;99.90;;;;;;4921100;29;20067;-82
2023/08/01 05:16:31;;;;;;;2.78;0.85;;;15.30;99.90;;;;;;4928126;29;20160;-82
2023/08/01 05:18:56;;;;;;;5.13;1.15;;;15.40;99.90;;;;;;4929226;29;20065;-82
2023/08/01 05:21:22;;;;;;;5.60;1.08;;;15.50;99.90;;;;;;4920670;29;21008;-81
2023/08/01 05:23:47;;;;;;;2.00;0.93;;;15.60;99.90;;;;;;4909705;29;20058;-83
2023/08/01 05:26:13;;;;;;;4.18;0.85;;;15.80;99.90;;;;;;4921947;29;20597;-80
2023/08/01 05:28:39;;;;;;;3.40;0.80;;;16.00;99.90;;;;;;4923157;29;20090;-80
2023/08/01 05:31:04;;;;;;;3.63;0.98;;;16.20;99.90;;;;;;4920682;29;20125;-84
2023/08/01 05:33:30;;;;;;;2.13;1.00;;;16.30;99.90;;;;;;4924291;29;20036;-82
2023/08/01 05:35:55;;;;;;;4.45;1.10;;;16.20;99.90;;;;;;4916679;29;20083;-83
2023/08/01 05:38:21;;;;;;;2.95;0.80;;;16.20;99.90;;;;;;4913836;29;20059;-83
2023/08/01 05:40:46;;;;;;;4.72;1.40;;;16.20;99.90;;;;;;4919792;29;20055;-83
2023/08/01 05:43:12;;;;;;;4.05;1.20;;;16.20;99.90;;;;;;4917426;29;20051;-84
2023/08/01 05:45:38;;;;;;;4.93;1.10;;;16.10;99.90;;;;;;4910260;29;20056;-83
2023/08/01 05:48:04;;;;;;;2.42;1.05;;;16.10;99.90;;;;;;4925576;29;20064;-83
2023/08/01 05:50:30;;;;;;;3.72;1.02;;;16.00;99.90;;;;;;4935863;28;20071;-80
2023/08/01 05:52:55;;;;;;;4.32;1.45;;;16.00;99.90;;;;;;4924279;29;20048;-83
2023/08/01 05:55:26;;;;;;;6.28;1.20;;;16.10;99.90;;;;;;4925147;29;20044;-83
2023/08/01 05:58:04;;;;;;;3.28;1.17;;;16.30;99.90;;;;;;4915490;29;20052;-83
2023/08/01 06:00:30;;;;;;;2.60;1.20;;;16.50;99.90;;;;;;4906509;29;20044;-83
2023/08/01 06:03:00;;;;;;;4.65;1.52;;;16.70;99.90;;;;;;4912017;29;20054;-80
2023/08/01 06:05:26;;;;;;;3.22;1.13;;;16.80;99.90;;;;;;4924484;28;20048;-82
2023/08/01 06:07:51;;;;;;;3.38;1.10;;;16.90;99.90;;;;;;4912602;29;20043;-80
2023/08/01 06:10:17;;;;;;;2.90;1.20;;;16.90;99.90;;;;;;4917926;29;20043;-80
2023/08/01 06:12:42;;;;;;;3.75;1.25;;;17.00;99.90;;;;;;4934123;29;20039;-80
2023/08/01 06:15:08;;;;;;;1.65;0.70;;;17.10;99.90;;;;;;4937308;29;20577;-80
2023/08/01 06:17:34;;;;;;;4.35;1.45;;;17.00;99.90;;;;;;4912681;29;20076;-81
2023/08/01 06:19:59;;;;;;;3.33;0.88;;;16.90;99.90;;;;;;4925575;29;20402;-80
2023/08/01 06:22:25;;;;;;;4.35;1.00;;;16.80;99.90;;;;;;4914522;29;20585;-80
2023/08/01 06:24:50;;;;;;;3.35;0.85;;;16.80;99.90;;;;;;4913659;29;20051;-83
2023/08/01 06:27:17;;;;;;;4.45;1.33;;;16.70;99.90;;;;;;4913516;29;20051;-80
2023/08/01 06:29:43;;;;;;;2.75;1.08;;;16.60;99.90;;;;;;4929709;29;20039;-81
2023/08/01 06:32:14;;;;;;;2.63;1.40;;;16.50;99.90;;;;;;4915143;29;20609;-82
2023/08/01 06:35:10;;;;;;;1.60;0.60;;;16.50;99.90;;;;;;4924435;29;20058;-83
2023/08/01 06:37:37;;;;;;;2.10;1.00;;;16.60;99.90;;;;;;4914448;29;20051;-83
2023/08/01 06:40:04;;;;;;;5.50;0.88;;;16.50;99.90;;;;;;4902008;29;20043;-83
2023/08/01 06:42:29;;;;;;;3.50;1.23;;;16.80;99.90;;;;;;4917778;29;20453;-83
2023/08/01 06:44:55;;;;;;;6.20;0.75;;;16.80;99.90;;;;;;4902474;29;20040;-82
2023/08/01 06:47:20;;;;;;;3.55;0.65;;;16.90;99.90;;;;;;4905946;29;20059;-82
2023/08/01 06:49:46;;;;;;;1.33;0.50;;;16.80;99.90;;;;;;4901838;29;20674;-82
2023/08/01 06:52:12;;;;;;;3.97;1.10;;;16.70;99.90;;;;;;4939216;29;20843;-82
2023/08/01 06:54:37;;;;;;;2.33;0.50;;;16.70;99.90;;;;;;4906901;29;20705;-82
2023/08/01 06:57:03;;;;;;;2.53;0.52;;;16.70;99.90;;;;;;4911272;29;20048;-82
2023/08/01 06:59:28;;;;;;;4.20;0.60;;;17.10;99.90;;;;;;4914669;29;20060;-82
2023/08/01 07:01:55;;;;;;;2.33;0.43;;;17.50;99.90;;;;;;4920749;29;20054;-81
2023/08/01 07:04:20;;;;;;;2.42;0.68;;;18.00;99.90;;;;;;4919914;29;20052;-83
2023/08/01 07:06:46;;;;;;;2.65;0.68;;;18.60;99.90;;;;;;4935606;29;20634;-83
2023/08/01 07:09:15;;;;;;;2.90;0.70;;;19.20;99.90;;;;;;4934676;29;20047;-84
2023/08/01 07:11:40;;;;;;;2.38;0.60;;;19.10;99.90;;;;;;4923233;29;20397;-83
2023/08/01 07:14:06;;;;;;;3.22;0.70;;;19.50;99.90;;;;;;4928430;29;20130;-83
2023/08/01 07:16:31;;;;;;;2.97;0.85;;;19.60;99.90;;;;;;4935098;29;20046;-83
2023/08/01 07:18:59;;;;;;;2.85;0.60;;;19.60;99.90;;;;;;4937482;29;20050;-83
2023/08/01 07:21:31;;;;;;;5.97;0.85;;;19.60;99.90;;;;;;4919015;29;20040;-83
2023/08/01 07:24:03;;;;;;;2.15;0.50;;;19.40;99.90;;;;;;4918099;29;20076;-84
2023/08/01 07:26:29;;;;;;;2.40;0.65;;;19.20;99.90;;;;;;4923833;29;20553;-83
2023/08/01 07:28:55;;;;;;;3.58;1.00;;;19.10;99.90;;;;;;4920413;29;20607;-83
2023/08/01 07:31:21;;;;;;;4.70;0.80;;;18.80;99.90;;;;;;4916604;29;20142;-84
2023/08/01 07:33:47;;;;;;;1.95;0.60;;;18.50;99.90;;;;;;4916691;29;20083;-83
2023/08/01 07:36:53;;;;;;;2.65;0.52;;;18.30;99.90;;;;;;4921795;29;20071;-83
2023/08/01 07:39:21;;;;;;;3.55;0.80;;;17.90;99.90;;;;;;4926735;29;20541;-83
2023/08/01 07:41:48;;;;;;;3.85;1.08;;;17.70;99.90;;;;;;4915113;29;20068;-82
2023/08/01 07:44:14;;;;;;;7.10;1.08;;;17.50;99.90;;;;;;4927832;29;20040;-82
2023/08/01 07:46:40;;;;;;;3.58;0.70;;;17.40;99.90;;;;;;4925361;29;20644;-85
2023/08/01 07:49:05;;;;;;;5.35;0.82;;;17.30;99.90;;;;;;4909281;29;20027;-83
2023/08/01 07:51:33;;;;;;;4.47;1.25;;;17.10;99.90;;;;;;4922865;29;20502;-83
2023/08/01 07:53:59;;;;;;;3.15;1.05;;;17.10;99.90;;;;;;4925112;28;20067;-83
2023/08/01 07:56:25;;;;;;;2.65;0.90;;;17.00;99.90;;;;;;4907474;29;20503;-83
2023/08/01 07:58:50;;;;;;;4.30;0.95;;;16.90;99.90;;;;;;4916423;29;20046;-82
2023/08/01 08:01:16;;;;;;;4.10;0.93;;;16.90;99.90;;;;;;4933462;29;20057;-82
2023/08/01 08:03:42;;;;;;;4.20;0.90;;;16.80;99.90;;;;;;4921566;29;20038;-83
2023/08/01 08:06:07;;;;;;;3.55;1.00;;;16.80;99.90;;;;;;4919095;29;20050;-82
2023/08/01 08:08:33;;;;;;;2.63;0.60;;;16.90;99.90;;;;;;4927672;29;21045;-82
2023/08/01 08:10:59;;;;;;;2.67;0.68;;;16.90;99.90;;;;;;4914677;29;20072;-82
2023/08/01 08:13:25;;;;;;;3.80;1.48;;;16.90;99.90;;;;;;4917578;29;20486;-83
2023/08/01 08:15:51;;;;;;;4.20;0.70;;;16.90;99.90;;;;;;4913977;29;20039;-82
2023/08/01 08:18:18;;;;;;;5.53;0.98;;;16.90;99.90;;;;;;4907247;29;20142;-82
2023/08/01 08:20:45;;;;;;;4.50;0.75;;;16.80;99.90;;;;;;4933668;29;20031;-82
2023/08/01 08:23:13;;;;;;;2.88;0.70;;;16.70;99.90;;;;;;4916675;29;20051;-83
2023/08/01 08:25:41;;;;;;;3.78;0.70;;;16.60;99.90;;;;;;4903159;29;20114;-83
2023/08/01 08:28:32;;;;;;;5.68;0.88;;;16.60;99.90;;;;;;4923159;29;20051;-82
2023/08/01 08:30:58;;;;;;;5.28;0.90;;;16.50;99.90;;;;;;4917746;29;20495;-82
2023/08/01 08:33:24;;;;;;;5.28;0.70;;;16.50;99.90;;;;;;4937415;29;20063;-82
2023/08/01 08:35:50;;;;;;;3.72;0.60;;;16.50;99.90;;;;;;4933209;29;20157;-82
2023/08/01 08:38:17;;;;;;;1.85;0.50;;;16.40;99.90;;;;;;4932928;29;20466;-83
2023/08/01 08:40:55;;;;;;;3.35;0.80;;;16.50;99.90;;;;;;4917695;29;20039;-82
2023/08/01 08:43:21;;;;;;;5.13;1.00;;;16.40;99.90;;;;;;4908893;29;20052;-81
2023/08/01 08:45:48;;;;;;;4.57;0.93;;;16.40;99.90;;;;;;4917341;29;20474;-81
2023/08/01 08:48:18;;;;;;;9.32;2.47;;;16.40;99.90;;;;;;4912599;29;20039;-82
2023/08/01 08:50:45;;;;;;;7.05;1.35;;;16.50;99.90;;;;;;4896435;29;20043;-81
2023/08/01 08:53:12;;;;;;;8.50;1.75;;;16.40;99.90;;;;;;4910544;29;20051;-82
2023/08/01 08:55:39;;;;;;;5.18;1.30;;;16.40;99.90;;;;;;4917583;29;20554;-82
2023/08/01 08:58:05;;;;;;;5.32;1.55;;;16.30;99.90;;;;;;4901269;29;20044;-82
2023/08/01 09:00:31;;;;;;;5.60;1.00;;;16.20;99.90;;;;;;4934342;29;20120;-82
2023/08/01 09:02:57;;;;;;;3.45;0.93;;;16.20;99.90;;;;;;4917773;29;20075;-82
2023/08/01 09:05:34;;;;;;;2.55;0.68;;;16.30;99.90;;;;;;4927619;29;20083;-82
2023/08/01 09:08:07;;;;;;;6.68;1.65;;;16.30;99.90;;;;;;4916757;29;20058;-82
2023/08/01 09:10:33;;;;;;;3.03;0.95;;;16.50;99.90;;;;;;4918384;29;20044;-82
2023/08/01 09:12:58;;;;;;;2.50;0.65;;;16.50;99.90;;;;;;4931091;29;20047;-83
2023/08/01 09:15:27;;;;;;;4.57;1.33;;;16.50;99.90;;;;;;4904868;29;20074;-83
2023/08/01 09:18:00;;;;;;;5.80;1.73;;;16.60;99.90;;;;;;4915322;29;20451;-83
2023/08/01 09:20:27;;;;;;;4.05;1.45;;;16.60;99.90;;;;;;4930480;29;20043;-83
2023/08/01 09:22:53;;;;;;;5.50;1.50;;;16.60;99.90;;;;;;4915056;29;20812;-85
2023/08/01 09:25:19;;;;;;;3.90;0.90;;;16.60;99.90;;;;;;4913224;29;20058;-81
2023/08/01 09:27:44;;;;;;;6.53;1.58;;;16.50;99.90;;;;;;4929223;29;20078;-81
2023/08/01 09:30:16;;;;;;;6.15;1.52;;;16.60;99.90;;;;;;4893767;29;20051;-84
2023/08/01 09:32:53;;;;;;;3.55;1.40;;;16.60;99.90;;;;;;4930042;29;20043;-83
2023/08/01 09:35:18;;;;;;;3.50;1.10;;;16.60;99.90;;;;;;4900407;29;20058;-83
2023/08/01 09:37:44;;;;;;;2.35;0.70;;;17.50;99.90;;;;;;4899895;29;20040;-83
2023/08/01 09:40:10;;;;;;;3.15;0.98;;;16.90;99.90;;;;;;4913763;29;20435;-82
2023/08/01 09:42:39;;;;;;;4.13;1.15;;;17.20;99.90;;;;;;4925260;29;20496;-83
2023/08/01 09:45:15;;;;;;;3.58;0.95;;;17.40;99.90;;;;;;4920881;29;20046;-83
2023/08/01 09:47:42;;;;;;;3.38;0.80;;;17.50;99.90;;;;;;4914655;29;20047;-84
2023/08/01 09:50:19;;;;;;;3.15;0.98;;;17.60;99.90;;;;;;4928134;29;20491;-83
2023/08/01 09:52:52;;;;;;;6.07;0.90;;;17.60;99.90;;;;;;4899518;29;20047;-83
2023/08/01 09:55:25;;;;;;;3.28;0.60;;;17.50;99.90;;;;;;4936303;29;20043;-83
2023/08/01 09:57:53;;;;;;;8.20;1.50;;;17.50;99.90;;;;;;4925759;29;20530;-82
2023/08/01 10:00:18;;;;;;;5.28;0.88;;;17.60;99.90;;;;;;4908367;29;20048;-83
2023/08/01 10:02:45;;;;;;;4.15;0.80;;;17.70;99.90;;;;;;4910302;29;20484;-82
2023/08/01 10:05:12;;;;;;;3.75;0.90;;;17.70;99.90;;;;;;4920197;29;21464;-83
2023/08/01 10:07:39;;;;;;;4.50;1.00;;;18.30;99.90;;;;;;4931582;29;20494;-83
2023/08/01 10:10:07;;;;;;;4.57;1.20;;;17.60;99.90;;;;;;4915528;29;20127;-81
2023/08/01 10:12:33;;;;;;;7.97;1.08;;;17.40;99.90;;;;;;4923050;29;20059;-81
2023/08/01 10:15:00;;;;;;;3.40;0.85;;;17.30;99.90;;;;;;4924051;29;20055;-82
2023/08/01 10:17:27;;;;;;;7.45;1.05;;;17.20;99.90;;;;;;4917283;29;20048;-81
2023/08/01 10:19:58;;;;;;;4.95;1.02;;;17.10;99.90;;;;;;4930142;29;20192;-81
2023/08/01 10:22:26;;;;;;;7.18;1.67;;;17.00;99.90;;;;;;4926434;29;20466;-82
2023/08/01 10:24:53;;;;;;;5.68;1.17;;;16.90;99.90;;;;;;4923633;29;20052;-82
2023/08/01 10:27:23;;;;;;;4.68;0.93;;;16.90;99.90;;;;;;4901510;29;20989;-82
2023/08/01 10:30:15;;;;;;;5.32;1.35;;;16.80;99.90;;;;;;4928300;29;20043;-83
2023/08/01 10:32:41;;;;;;;6.20;1.42;;;17.00;99.90;;;;;;4928721;29;21226;-82
2023/08/01 10:35:07;;;;;;;3.78;0.90;;;16.90;99.90;;;;;;4911659;29;20043;-80
2023/08/01 10:38:09;;;;;;;4.18;0.80;;;16.80;99.90;;;;;;4904168;29;20120;-78
2023/08/01 10:40:44;;;;;;;5.97;1.10;;;16.70;99.90;;;;;;4922833;29;20044;-82
2023/08/01 10:43:21;;;;;;;4.07;1.38;;;16.70;99.90;;;;;;4924413;29;20046;-79
2023/08/01 10:45:46;;;;;;;4.22;0.90;;;16.70;99.90;;;;;;4925094;29;20132;-78
2023/08/01 10:49:02;;;;;;;3.78;0.90;;;16.80;99.90;;;;;;4926176;29;20036;-82
2023/08/01 10:52:34;;;;;;;5.45;1.40;;;16.90;99.90;;;;;;4914027;29;20511;-82
2023/08/01 10:56:38;;;;;;;;;;;;;;;;;;;;;
2023/08/01 11:00:24;;;;;;;7.80;1.50;;;17.90;99.90;;;;;;4890104;29;20059;-81
2023/08/01 11:03:26;;;;;;;;;;;;;;;;;;;;;
2023/08/01 11:53:48;;;;;;;8.05;1.35;;;18.60;99.90;;;;;;4929541;29;20078;-83
2023/08/01 11:57:17;;;;;;;5.25;1.30;;;18.50;99.90;;;;;;4877769;29;20045;-86
2023/08/01 12:00:23;;;;;;;3.75;0.77;;;18.10;99.90;;;;;;4860733;29;20082;-80
2023/08/01 12:02:49;;;;;;;2.70;0.55;;;18.40;99.90;;;;;;4898853;29;20043;-79
2023/08/01 12:05:23;;;;;;;2.00;0.65;;;18.20;99.90;;;;;;4881049;29;20036;-79
2023/08/01 12:27:42;;;;;;;6.22;1.05;;;19.30;99.90;;;;;;4898178;29;20555;-82
2023/08/01 12:30:59;;;;;;;8.00;1.48;;;19.10;99.90;;;;;;4820409;29;20067;-81
2023/08/01 12:34:03;;;;;;;7.50;1.42;;;18.90;99.90;;;;;;4819760;29;20042;-81
2023/08/01 12:44:57;;;;;;;2.78;0.70;;;18.90;99.90;;;;;;4768325;29;20046;-81
2023/08/01 12:48:29;;;;;;;6.13;0.75;;;19.00;99.90;;;;;;4762472;30;20094;-82
2023/08/01 12:52:31;;;;;;;3.60;0.80;;;19.00;99.90;;;;;;4782019;29;20066;-81
2023/08/01 12:55:27;;;;;;;7.22;0.85;;;19.10;99.90;;;;;;4782033;29;20067;-81
2023/08/01 12:58:29;;;;;;;5.05;1.27;;;19.10;99.90;;;;;;4804976;29;20045;-78
2023/08/01 13:27:46;;;;;;;7.60;1.15;;;19.70;99.90;;;;;;4836838;29;20148;-81
2023/08/01 13:40:50;;;;;;;5.82;0.98;;;19.80;99.90;;;;;;4837764;29;20152;-82
2023/08/01 13:43:23;;;;;;;4.75;0.70;;;19.90;99.90;;;;;;4848924;29;20282;-81
2023/08/01 13:50:36;;;;;;;7.57;0.80;;;19.90;99.90;;;;;;4855927;29;20059;-83
2023/08/01 13:54:01;;;;;;;3.22;0.77;;;19.80;99.90;;;;;;4869620;29;20049;-82
2023/08/01 14:00:10;;;;;;;7.30;1.13;;;19.70;99.90;;;;;;4903014;29;20566;-81
2023/08/01 14:03:07;;;;;;;4.80;0.88;;;19.70;99.90;;;;;;4877808;29;20122;-82
2023/08/01 14:13:32;;;;;;;2.35;0.73;;;19.30;99.90;;;;;;4906989;29;20091;-83
2023/08/01 14:16:50;;;;;;;5.60;1.00;;;19.00;99.90;;;;;;4896645;29;20055;-82
2023/08/01 14:38:56;;;;;;;2.47;0.60;;;18.10;99.90;;;;;;4753717;30;20052;-82
2023/08/01 14:42:03;;;;;;;4.05;0.65;;;17.80;99.90;;;;;;4740785;29;20091;-82
2023/08/01 14:48:07;;;;;;;2.20;0.50;;;18.10;99.90;;;;;;4815254;29;20050;-82
2023/08/01 14:59:18;;;;;;;5.78;0.93;;;18.80;99.90;;;;;;4840136;29;20421;-82
2023/08/01 15:13:39;;;;;;;3.17;0.50;;;18.90;99.90;;;;;;4911229;29;20046;-82
2023/08/01 15:21:18;;;;;;;1.38;0.63;;;18.30;99.90;;;;;;4916663;29;20569;-83
2023/08/01 15:25:21;;;;;;;1.35;0.40;;;18.10;99.90;;;;;;4864342;29;20059;-83
2023/08/01 15:28:14;;;;;;;1.42;0.55;;;18.10;99.90;;;;;;4857006;29;20254;-82
2023/08/01 15:30:40;;;;;;;3.85;0.80;;;18.20;99.90;;;;;;4895755;29;20044;-80
2023/08/01 15:33:07;;;;;;;2.92;1.00;;;18.20;99.90;;;;;;4914934;29;20119;-85
2023/08/01 15:39:47;;;;;;;5.07;1.00;;;18.20;99.90;;;;;;4843891;29;20114;-82
2023/08/01 15:42:13;;;;;;;2.38;0.60;;;18.20;99.90;;;;;;4864221;29;20052;-82
2023/08/01 15:44:38;;;;;;;2.90;0.57;;;18.20;99.90;;;;;;4886836;29;20059;-82
2023/08/01 15:47:04;;;;;;;4.70;0.60;;;18.20;99.90;;;;;;4915091;29;20128;-82
2023/08/01 15:49:30;;;;;;;3.08;0.60;;;18.10;99.90;;;;;;4897115;29;20048;-82
2023/08/01 15:51:56;;;;;;;4.43;0.73;;;18.20;99.90;;;;;;4900521;29;20064;-82
2023/08/01 15:54:21;;;;;;;3.08;1.15;;;18.00;99.90;;;;;;4914439;29;20099;-82
2023/08/01 15:56:47;;;;;;;3.95;0.75;;;18.20;99.90;;;;;;4911018;29;20047;-82
2023/08/01 15:59:12;;;;;;;3.00;1.15;;;18.10;99.90;;;;;;4909760;29;20044;-82
2023/08/01 16:01:38;;;;;;;2.28;0.50;;;18.20;99.90;;;;;;4915199;29;20032;-81
2023/08/01 16:04:04;;;;;;;4.20;1.00;;;18.30;99.90;;;;;;4912540;29;20036;-82
2023/08/01 16:06:29;;;;;;;4.38;0.98;;;18.30;99.90;;;;;;4898438;29;20044;-82
2023/08/01 16:08:55;;;;;;;5.05;0.73;;;18.40;99.90;;;;;;4881220;29;20063;-81